Sioux Gateway Col. Bud Day Field
KSUX : now visible

Airfield :











YOU CAN JOIN US ON...

 
LOGIN :

Register | Disclaimer

   EN    FR    IT 

 









Legend :    VFR   Marginal VFR   IFR   Intensive IFR   Very Intensive IFR
Visi :
Ceiling :
>= 8 km
>= 3000ft
5 to 8 km
1000 to 3000 ft
1500m to 5 km
500 to 1000 ft
800 to 1500m
200 to 500 ft
< 800m
< 200 ft
Symbols :   Thunderstorms  Fog  Heavy snow  Heavy precipitations  Wind > 20 kt






- Airport Elevation : 1098 ft
- IATA code : SUX


KSUX - Sioux Gateway Col. Bud Day Field

CURRENT METAR :
  • 220252Z AUTO 21004KT 10SM CLR 00/M08 A3015 RMK AO2 SLP223 T00001078 53002

EXPIRED METARs :
  • 220152Z 26003KT 10SM CLR 02/M08 A3015 RMK AO2 SLP219 T00221078
  • 220052Z 28004KT 10SM CLR 06/M08 A3014 RMK AO2 SLP217 T00561078
  • 212352Z 30005KT 10SM CLR 08/M08 A3015 RMK AO2 SLP219 T00781078 10089 20044 56017

TAF KSUX
Valid from the 22 at 00:00 until the 23 at 00:00 UTC


212320Z 2200/2224 31009KT P6SM SCT060
FM220200 VRB04KT P6SM SKC
FM221300 17007KT P6SM SKC
FM221600 20012G17KT P6SM SKC
FM221900 18015G22KT P6SM SCT080
FM222200 17015G23KT P6SM VCSH BKN070
KZMP FIR / North America



MET'MAP, your aeronautical weather chart ! - Copyright ORBIFLY December 2007 - Disclaimer

ORBIFLY MET'MAP TEAM :

Programming & Development : Alexandra Zaïnal
Concept & original design : Baudouin d'Aumeries
Assistance for programming : Marc-Olivier Méhu
Technical & hardware support : Manuel Goepfert

Contact : metmap@orbifly.com




SOURCES & CREDITS :

   NOAA       Earth
Advisory